createdAt,value
2023-01-12T00:02:25.280Z,97776.16
2023-01-12T00:04:54.531Z,97776.88
2023-01-12T00:07:24.233Z,97781.94
2023-01-12T00:09:53.094Z,97779.84
2023-01-12T00:12:21.929Z,97779.84
2023-01-12T00:14:50.751Z,97782.28
2023-01-12T00:17:20.181Z,97773.56
2023-01-12T00:19:49.049Z,97802.47
2023-01-12T00:22:18.216Z,97784.97
2023-01-12T00:24:50.324Z,97798.16
2023-01-12T00:27:22.741Z,97790.47
2023-01-12T00:29:51.796Z,97786.69
2023-01-12T00:32:22.331Z,97787.59
2023-01-12T00:34:51.288Z,97788.34
2023-01-12T00:37:23.025Z,97792.44
2023-01-12T00:40:01.698Z,97793.06
2023-01-12T00:42:51.147Z,97787.19
2023-01-12T00:45:23.167Z,97788.75
2023-01-12T00:47:52.858Z,97798.53
2023-01-12T00:50:22.765Z,97787.34
2023-01-12T00:52:51.678Z,97788.31
2023-01-12T00:55:20.588Z,97809.91
2023-01-12T00:57:49.623Z,97798.78
2023-01-12T01:00:19.953Z,97796.25
2023-01-12T01:02:49.262Z,97792.16
2023-01-12T01:05:18.625Z,97800.50
2023-01-12T01:07:48.009Z,97817.44
2023-01-12T01:10:17.376Z,97812.59
2023-01-12T01:12:46.513Z,97820.84
2023-01-12T01:15:15.511Z,97828.53
2023-01-12T01:17:44.395Z,97833.34
2023-01-12T01:20:13.595Z,97842.50
2023-01-12T01:22:42.514Z,97833.22
2023-01-12T01:25:11.755Z,97836.47
2023-01-12T01:27:41.733Z,97848.91
2023-01-12T01:30:11.720Z,97848.25
2023-01-12T01:32:40.544Z,97862.56
2023-01-12T01:35:09.723Z,97862.28
2023-01-12T01:37:38.749Z,97860.22
2023-01-12T01:40:08.264Z,97861.69
2023-01-12T01:42:37.244Z,97864.22
2023-01-12T01:45:08.074Z,97870.78
2023-01-12T01:48:01.106Z,97860.47
2023-01-12T01:50:39.061Z,97860.63
2023-01-12T01:53:12.819Z,97859.66
2023-01-12T01:55:51.062Z,97868.47
2023-01-12T01:58:36.532Z,97861.78
2023-01-12T02:01:06.980Z,97875.94
2023-01-12T02:03:37.599Z,97871.56
2023-01-12T02:06:08.127Z,97870.69
2023-01-12T02:08:53.383Z,97880.47
2023-01-12T02:11:41.219Z,97884.41
2023-01-12T02:14:30.137Z,97875.72
2023-01-12T02:17:29.250Z,97893.97
2023-01-12T02:20:01.162Z,97890.88
2023-01-12T02:22:42.092Z,97903.31
2023-01-12T02:25:25.765Z,97903.72
2023-01-12T02:28:17.710Z,97907.06
2023-01-12T02:31:20.556Z,97911.97
2023-01-12T02:34:06.848Z,97911.44
2023-01-12T02:36:54.466Z,97906.94
2023-01-12T02:39:29.532Z,97904.88
2023-01-12T02:42:25.719Z,97902.16
2023-01-12T02:45:28.752Z,97898.44
2023-01-12T02:48:21.393Z,97900.16
2023-01-12T02:51:02.225Z,97891.91
2023-01-12T02:53:47.725Z,97899.38
2023-01-12T02:56:32.907Z,97910.25
2023-01-12T02:59:25.412Z,97906.81
2023-01-12T03:02:00.938Z,97916.88
2023-01-12T03:04:33.017Z,97917.53
2023-01-12T03:07:01.781Z,97920.69
2023-01-12T03:09:40.275Z,97914.16
2023-01-12T03:12:14.996Z,97909.53
2023-01-12T03:14:47.578Z,97912.16
2023-01-12T03:17:23.657Z,97923.88
2023-01-12T03:19:55.501Z,97911.78
2023-01-12T03:22:25.410Z,97917.25
2023-01-12T03:24:59.237Z,97912.16
2023-01-12T03:27:56.288Z,97921.69
2023-01-12T03:30:32.529Z,97924.34
2023-01-12T03:33:02.074Z,97923.78
2023-01-12T03:35:37.197Z,97920.00
2023-01-12T03:38:20.320Z,97923.75
2023-01-12T03:41:01.151Z,97933.03
2023-01-12T03:43:35.362Z,97932.28
2023-01-12T03:46:11.878Z,97923.25
2023-01-12T03:48:47.655Z,97929.53
2023-01-12T03:51:23.121Z,97922.50
2023-01-12T03:53:53.408Z,97913.66
2023-01-12T03:56:26.063Z,97913.66
2023-01-12T03:58:55.134Z,97914.78
2023-01-12T04:01:25.010Z,97922.16
2023-01-12T04:03:54.212Z,97915.63
2023-01-12T04:06:23.687Z,97905.84
2023-01-12T04:08:52.517Z,97903.66
2023-01-12T04:11:40.040Z,97923.94
2023-01-12T04:14:08.940Z,97923.06
2023-01-12T04:16:37.863Z,97933.66
2023-01-12T04:19:06.805Z,97923.63
2023-01-12T04:21:54.107Z,97925.88
2023-01-12T04:24:22.984Z,97929.56
2023-01-12T04:26:51.824Z,97928.22
2023-01-12T04:29:21.110Z,97911.09
2023-01-12T04:31:50.002Z,97933.66
2023-01-12T04:34:19.447Z,97930.28
2023-01-12T04:36:48.384Z,97951.50
2023-01-12T04:39:17.771Z,97943.19
2023-01-12T04:41:46.847Z,97951.09
2023-01-12T04:44:15.807Z,97948.91
2023-01-12T04:46:44.704Z,97955.34
2023-01-12T04:49:13.643Z,97938.94
2023-01-12T04:51:42.821Z,97966.41
2023-01-12T04:54:11.867Z,97959.06
2023-01-12T04:56:42.297Z,97965.91
2023-01-12T04:59:11.283Z,97968.75
2023-01-12T05:01:41.443Z,97961.72
2023-01-12T05:04:10.670Z,97962.63
2023-01-12T05:06:39.455Z,97977.09
2023-01-12T05:09:27.847Z,97964.66
2023-01-12T05:11:56.669Z,97973.94
2023-01-12T05:14:26.908Z,97983.25
2023-01-12T05:16:55.827Z,97980.19
2023-01-12T05:19:24.747Z,97976.44
2023-01-12T05:21:53.584Z,97969.50
2023-01-12T05:24:22.494Z,98000.09
2023-01-12T05:26:51.439Z,97983.66
2023-01-12T05:29:20.343Z,97962.97
2023-01-12T05:31:49.362Z,97972.34
2023-01-12T05:34:20.375Z,97979.59
2023-01-12T05:36:49.573Z,97961.22
2023-01-12T05:39:18.474Z,97975.72
2023-01-12T05:42:05.792Z,97972.13
2023-01-12T05:44:34.794Z,97966.63
2023-01-12T05:47:04.007Z,97968.19
2023-01-12T05:49:33.425Z,97971.25
2023-01-12T05:52:02.313Z,97975.41
2023-01-12T05:54:32.145Z,97981.56
2023-01-12T05:57:01.141Z,97959.00
2023-01-12T05:59:30.059Z,97973.91
2023-01-12T06:02:00.052Z,97962.75
2023-01-12T06:04:29.924Z,97975.19
2023-01-12T06:06:58.979Z,97963.28
2023-01-12T06:09:27.827Z,97973.94
2023-01-12T06:12:25.933Z,97976.81
2023-01-12T06:14:54.853Z,97976.94
2023-01-12T06:17:23.685Z,97966.03
2023-01-12T06:19:53.978Z,97975.50
2023-01-12T06:22:22.831Z,97981.44
2023-01-12T06:24:51.682Z,97992.25
2023-01-12T06:27:20.529Z,97994.00
2023-01-12T06:29:49.973Z,97991.44
2023-01-12T06:32:18.904Z,98001.75
2023-01-12T06:34:47.770Z,97982.75
2023-01-12T06:37:16.718Z,98001.34
2023-01-12T06:39:45.591Z,97992.53
2023-01-12T06:42:29.638Z,97988.34
2023-01-12T06:45:00.723Z,97987.81
2023-01-12T06:47:31.652Z,98003.47
2023-01-12T06:50:00.615Z,97991.63
2023-01-12T06:52:30.798Z,97990.50
2023-01-12T06:54:59.982Z,97964.69
2023-01-12T06:57:28.848Z,97997.56
2023-01-12T06:59:57.809Z,97996.56
2023-01-12T07:02:27.506Z,97996.56
2023-01-12T07:04:56.814Z,98005.44
2023-01-12T07:07:25.811Z,98001.84
2023-01-12T07:09:54.704Z,98009.31
2023-01-12T07:12:23.965Z,98003.78
2023-01-12T07:14:53.037Z,98013.38
2023-01-12T07:17:21.884Z,98006.41
2023-01-12T07:19:50.829Z,98006.09
2023-01-12T07:22:19.694Z,98007.03
2023-01-12T07:24:48.576Z,98016.41
2023-01-12T07:27:17.615Z,98032.53
2023-01-12T07:29:47.675Z,98016.91
2023-01-12T07:32:16.595Z,98029.41
2023-01-12T07:34:46.178Z,98025.44
2023-01-12T07:37:15.028Z,98030.84
2023-01-12T07:39:43.888Z,98025.97
2023-01-12T07:42:25.137Z,98044.16
2023-01-12T07:44:54.403Z,98050.91
2023-01-12T07:47:23.435Z,98044.16
2023-01-12T07:49:52.283Z,98030.63
2023-01-12T07:52:21.145Z,98018.38
2023-01-12T07:54:49.988Z,98047.47
2023-01-12T07:57:19.237Z,98054.38
2023-01-12T07:59:48.127Z,98040.75
2023-01-12T08:02:18.056Z,98046.59
2023-01-12T08:04:48.212Z,98046.03
2023-01-12T08:07:17.256Z,98052.97
2023-01-12T08:09:46.584Z,98058.69
2023-01-12T08:12:15.672Z,98040.16
2023-01-12T08:14:44.555Z,98060.25
2023-01-12T08:17:22.361Z,98072.91
2023-01-12T08:20:00.460Z,98062.63
2023-01-12T08:22:34.885Z,98068.06
2023-01-12T08:25:11.580Z,98061.34
2023-01-12T08:27:46.299Z,98066.09
2023-01-12T08:30:20.816Z,98065.50
2023-01-12T08:32:49.897Z,98062.94
2023-01-12T08:35:22.407Z,98072.47
2023-01-12T08:37:51.354Z,98075.41
2023-01-12T08:40:20.292Z,98085.03
2023-01-12T08:42:50.940Z,98093.56
2023-01-12T08:45:21.699Z,98104.50
2023-01-12T08:47:50.597Z,98102.28
2023-01-12T08:50:19.561Z,98102.28
2023-01-12T08:52:48.604Z,98118.47
2023-01-12T08:55:17.589Z,98116.91
2023-01-12T08:57:46.962Z,98123.94
2023-01-12T09:00:17.410Z,98125.63
2023-01-12T09:02:46.550Z,98140.38
2023-01-12T09:05:17.136Z,98142.34
2023-01-12T09:07:45.923Z,98141.09
2023-01-12T09:10:15.002Z,98142.88
2023-01-12T09:12:43.809Z,98137.97
2023-01-12T09:15:12.805Z,98144.53
2023-01-12T09:17:41.700Z,98149.34
2023-01-12T09:20:12.038Z,98142.53
2023-01-12T09:22:41.060Z,98138.44
2023-01-12T09:25:10.076Z,98151.69
2023-01-12T09:27:38.931Z,98155.16
2023-01-12T09:30:08.497Z,98146.00
2023-01-12T09:32:37.352Z,98151.25
2023-01-12T09:35:06.847Z,98157.34
2023-01-12T09:37:35.755Z,98161.00
2023-01-12T09:40:05.262Z,98160.03
2023-01-12T09:42:52.566Z,98166.75
2023-01-12T09:45:41.989Z,98159.88
2023-01-12T09:48:14.784Z,98160.69
2023-01-12T09:50:52.498Z,98170.78
2023-01-12T09:53:33.471Z,98177.03
2023-01-12T09:56:43.810Z,98181.03
2023-01-12T09:59:25.760Z,98169.41
2023-01-12T10:01:55.920Z,98174.47
2023-01-12T10:04:25.919Z,98183.19
2023-01-12T10:06:56.084Z,98193.19
2023-01-12T10:09:25.404Z,98194.03
2023-01-12T10:12:15.212Z,98201.00
2023-01-12T10:14:58.019Z,98204.44
2023-01-12T10:17:57.586Z,98194.75
2023-01-12T10:20:34.491Z,98203.88
2023-01-12T10:23:15.360Z,98188.00
2023-01-12T10:25:52.344Z,98196.44
2023-01-12T10:28:27.066Z,98208.94
2023-01-12T10:30:56.649Z,98211.63
2023-01-12T10:33:31.145Z,98202.16
2023-01-12T10:36:03.161Z,98212.97
2023-01-12T10:38:38.001Z,98210.00
2023-01-12T10:41:19.891Z,98235.63
2023-01-12T10:44:00.881Z,98227.81
2023-01-12T10:46:34.517Z,98228.81
2023-01-12T10:49:23.997Z,98227.25
2023-01-12T10:52:08.673Z,98242.50
2023-01-12T10:54:42.258Z,98249.06
2023-01-12T10:57:23.998Z,98247.09
2023-01-12T10:59:59.674Z,98248.56
2023-01-12T11:02:48.563Z,98260.16
2023-01-12T11:05:37.435Z,98259.91
2023-01-12T11:08:28.147Z,98265.31
2023-01-12T11:10:57.071Z,98244.25
2023-01-12T11:13:38.087Z,98260.22
2023-01-12T11:16:19.181Z,98260.41
2023-01-12T11:19:12.719Z,98268.03
2023-01-12T11:21:49.910Z,98257.56
2023-01-12T11:24:32.197Z,98272.53
2023-01-12T11:27:13.430Z,98274.09
2023-01-12T11:30:01.188Z,98261.47
2023-01-12T11:33:14.415Z,98265.28
2023-01-12T11:35:55.425Z,98280.28
2023-01-12T11:39:02.593Z,98278.66
2023-01-12T11:42:24.119Z,98287.38
2023-01-12T11:45:04.231Z,98296.22
2023-01-12T11:47:50.149Z,98306.22
2023-01-12T11:50:25.424Z,98305.22
2023-01-12T11:52:56.935Z,98308.19
2023-01-12T11:55:46.794Z,98316.72
2023-01-12T11:58:28.102Z,98317.53
2023-01-12T12:01:36.508Z,98326.88
2023-01-12T12:04:37.354Z,98328.69
2023-01-12T12:07:38.497Z,98343.94
2023-01-12T12:10:29.955Z,98349.53
2023-01-12T12:13:13.632Z,98349.53
2023-01-12T12:16:16.396Z,98359.38
2023-01-12T12:19:01.850Z,98342.66
2023-01-12T12:21:30.646Z,98368.56
2023-01-12T12:24:17.902Z,98370.94
2023-01-12T12:26:59.968Z,98372.41
2023-01-12T12:29:47.652Z,98366.25
2023-01-12T12:32:31.534Z,98374.63
2023-01-12T12:35:19.501Z,98382.09
2023-01-12T12:38:19.903Z,98376.13
2023-01-12T12:41:21.384Z,98379.72
2023-01-12T12:44:18.148Z,98378.16
2023-01-12T12:46:54.000Z,98393.34
2023-01-12T12:49:28.833Z,98372.31
2023-01-12T12:52:00.487Z,98386.50
2023-01-12T12:54:30.708Z,98362.59
2023-01-12T12:56:59.933Z,98393.34
2023-01-12T12:59:34.685Z,98387.28
2023-01-12T13:02:04.571Z,98393.75
2023-01-12T13:04:46.931Z,98382.69
2023-01-12T13:07:20.081Z,98388.66
2023-01-12T13:09:50.178Z,98392.59
2023-01-12T13:12:19.251Z,98390.94
2023-01-12T13:15:21.910Z,98399.56
2023-01-12T13:17:53.516Z,98387.41
2023-01-12T13:20:54.189Z,98395.63
2023-01-12T13:23:43.425Z,98406.28
2023-01-12T13:26:47.554Z,98407.19
2023-01-12T13:29:42.827Z,98412.28
2023-01-12T13:32:34.122Z,98411.91
2023-01-12T13:35:03.462Z,98402.28
2023-01-12T13:37:45.734Z,98407.03
2023-01-12T13:40:20.749Z,98416.31
2023-01-12T13:43:09.687Z,98408.94
2023-01-12T13:45:38.592Z,98404.06
2023-01-12T13:48:08.197Z,98413.44
2023-01-12T13:50:38.632Z,98414.47
2023-01-12T13:53:23.166Z,98415.69
2023-01-12T13:56:04.870Z,98414.22
2023-01-12T13:58:44.889Z,98416.25
2023-01-12T14:01:36.323Z,98414.16
2023-01-12T14:04:24.896Z,98423.34
2023-01-12T14:07:12.027Z,98427.06
2023-01-12T14:10:11.991Z,98423.72
2023-01-12T14:12:53.252Z,98421.34
2023-01-12T14:15:47.946Z,98419.69
2023-01-12T14:18:19.791Z,98405.88
2023-01-12T14:20:51.041Z,98425.81
2023-01-12T14:23:28.983Z,98427.31
2023-01-12T14:26:11.330Z,98430.75
2023-01-12T14:28:46.081Z,98432.31
2023-01-12T14:31:54.362Z,98433.13
2023-01-12T14:34:35.981Z,98423.19
2023-01-12T14:37:08.421Z,98422.22
2023-01-12T14:39:41.843Z,98429.56
2023-01-12T14:42:37.299Z,98438.28
2023-01-12T14:45:43.535Z,98422.22
2023-01-12T14:48:30.586Z,98432.31
2023-01-12T14:51:16.768Z,98427.72
2023-01-12T14:53:55.789Z,98435.66
2023-01-12T14:56:37.237Z,98432.38
2023-01-12T14:59:09.463Z,98419.00
2023-01-12T15:01:40.525Z,98446.22
2023-01-12T15:04:18.319Z,98446.41
2023-01-12T15:06:48.581Z,98448.34
2023-01-12T15:09:32.958Z,98456.78
2023-01-12T15:12:30.638Z,98452.75
2023-01-12T15:15:15.130Z,98453.78
2023-01-12T15:18:03.071Z,98433.44
2023-01-12T15:20:57.893Z,98450.72
2023-01-12T15:23:47.915Z,98456.63
2023-01-12T15:26:18.302Z,98452.38
2023-01-12T15:28:49.270Z,98459.97
2023-01-12T15:31:32.969Z,98463.25
2023-01-12T15:34:02.562Z,98440.25
2023-01-12T15:36:31.980Z,98421.06
2023-01-12T15:39:00.881Z,98438.91
2023-01-12T15:41:51.012Z,98453.50
2023-01-12T15:44:22.256Z,98453.00
2023-01-12T15:46:51.497Z,98458.69
2023-01-12T15:49:23.715Z,98460.50
2023-01-12T15:51:53.400Z,98463.78
2023-01-12T15:54:22.615Z,98469.91
2023-01-12T15:56:51.760Z,98435.56
2023-01-12T15:59:20.973Z,98460.06
2023-01-12T16:01:51.002Z,98453.94
2023-01-12T16:04:43.040Z,98469.09
2023-01-12T16:07:13.385Z,98473.28
2023-01-12T16:09:42.714Z,98469.84
2023-01-12T16:12:11.628Z,98465.97
2023-01-12T16:14:40.580Z,98439.72
2023-01-12T16:17:10.084Z,98473.50
2023-01-12T16:19:43.264Z,98468.88
2023-01-12T16:22:26.195Z,98480.47
2023-01-12T16:24:57.611Z,98472.31
2023-01-12T16:27:27.766Z,98474.38
2023-01-12T16:29:57.771Z,98482.19
2023-01-12T16:32:27.878Z,98480.09
2023-01-12T16:34:58.031Z,98473.06
2023-01-12T16:37:30.517Z,98478.34
2023-01-12T16:39:59.755Z,98483.28
2023-01-12T16:42:28.942Z,98488.44
2023-01-12T16:44:57.845Z,98487.06
2023-01-12T16:47:26.631Z,98495.72
2023-01-12T16:49:55.518Z,98503.41
2023-01-12T16:52:24.750Z,98494.06
2023-01-12T16:54:53.731Z,98489.47
2023-01-12T16:57:22.799Z,98495.09
2023-01-12T16:59:51.781Z,98475.28
2023-01-12T17:02:21.269Z,98500.09
2023-01-12T17:04:52.950Z,98509.38
2023-01-12T17:07:22.591Z,98486.13
2023-01-12T17:09:52.502Z,98476.31
2023-01-12T17:12:21.793Z,98478.78
2023-01-12T17:14:50.786Z,98478.09
2023-01-12T17:17:20.586Z,98489.84
2023-01-12T17:19:49.600Z,98485.09
2023-01-12T17:22:18.655Z,98463.53
2023-01-12T17:24:47.977Z,98503.88
2023-01-12T17:27:17.273Z,98498.03
2023-01-12T17:29:48.710Z,98500.66
2023-01-12T17:32:18.750Z,98494.63
2023-01-12T17:34:50.839Z,98504.53
2023-01-12T17:37:20.248Z,98486.38
2023-01-12T17:39:49.521Z,98489.69
2023-01-12T17:42:37.542Z,98507.94
2023-01-12T17:45:07.045Z,98496.41
2023-01-12T17:47:35.991Z,98516.28
2023-01-12T17:50:05.003Z,98490.56
2023-01-12T17:52:33.983Z,98511.91
2023-01-12T17:55:03.012Z,98497.56
2023-01-12T17:57:32.442Z,98510.25
2023-01-12T18:00:01.365Z,98492.72
2023-01-12T18:02:34.023Z,98500.16
2023-01-12T18:05:03.104Z,98490.97
2023-01-12T18:07:32.806Z,98496.13
2023-01-12T18:10:01.708Z,98486.94
2023-01-12T18:12:32.224Z,98494.34
2023-01-12T18:15:00.999Z,98503.41
2023-01-12T18:17:32.357Z,98501.69
2023-01-12T18:20:01.285Z,98500.66
2023-01-12T18:22:31.799Z,98504.91
2023-01-12T18:25:00.815Z,98501.69
2023-01-12T18:27:29.716Z,98503.88
2023-01-12T18:29:58.548Z,98510.53
2023-01-12T18:32:27.405Z,98488.91
2023-01-12T18:34:57.525Z,98496.28
2023-01-12T18:37:26.611Z,98502.22
2023-01-12T18:39:55.530Z,98501.28
2023-01-12T18:42:43.025Z,98488.91
2023-01-12T18:45:11.952Z,98469.09
2023-01-12T18:47:59.380Z,98496.47
2023-01-12T18:50:47.845Z,98499.84
2023-01-12T18:53:25.566Z,98503.41
2023-01-12T18:55:57.460Z,98513.25
2023-01-12T18:58:29.596Z,98513.34
2023-01-12T19:01:03.302Z,98524.19
2023-01-12T19:03:32.429Z,98510.88
2023-01-12T19:06:10.731Z,98519.84
2023-01-12T19:08:58.165Z,98522.28
2023-01-12T19:11:27.094Z,98527.91
2023-01-12T19:14:14.542Z,98524.50
2023-01-12T19:17:02.056Z,98513.75
2023-01-12T19:19:32.367Z,98523.81
2023-01-12T19:22:20.309Z,98506.41
2023-01-12T19:25:07.835Z,98528.81
2023-01-12T19:27:55.303Z,98526.44
2023-01-12T19:30:24.247Z,98523.22
2023-01-12T19:32:53.670Z,98533.16
2023-01-12T19:35:22.716Z,98527.34
2023-01-12T19:37:51.789Z,98525.84
2023-01-12T19:40:20.835Z,98515.81
2023-01-12T19:43:08.176Z,98519.72
2023-01-12T19:45:45.459Z,98499.84
2023-01-12T19:48:16.238Z,98517.84
2023-01-12T19:50:45.535Z,98513.53
2023-01-12T19:53:16.517Z,98492.69
2023-01-12T19:55:46.324Z,98501.38
2023-01-12T19:58:15.883Z,98494.66
2023-01-12T20:00:47.514Z,98490.25
2023-01-12T20:03:19.172Z,98501.06
2023-01-12T20:05:51.487Z,98491.41
2023-01-12T20:08:23.307Z,98503.00
2023-01-12T20:11:01.466Z,98506.44
2023-01-12T20:13:31.627Z,98509.81
2023-01-12T20:16:00.656Z,98502.13
2023-01-12T20:18:29.588Z,98496.00
2023-01-12T20:21:01.510Z,98495.38
2023-01-12T20:23:30.353Z,98493.63
2023-01-12T20:25:59.236Z,98501.38
2023-01-12T20:28:28.066Z,98487.75
2023-01-12T20:30:59.268Z,98500.59
2023-01-12T20:33:29.064Z,98499.09
2023-01-12T20:35:59.003Z,98495.00
2023-01-12T20:38:28.284Z,98491.56
2023-01-12T20:40:57.441Z,98488.22
2023-01-12T20:43:26.517Z,98490.59
2023-01-12T20:45:55.299Z,98483.28
2023-01-12T20:48:24.121Z,98483.13
2023-01-12T20:50:53.418Z,98482.91
2023-01-12T20:53:24.424Z,98479.41
2023-01-12T20:55:53.574Z,98475.06
2023-01-12T20:58:22.714Z,98475.78
2023-01-12T21:00:53.651Z,98466.78
2023-01-12T21:03:24.624Z,98471.88
2023-01-12T21:05:53.593Z,98467.91
2023-01-12T21:08:23.701Z,98451.41
2023-01-12T21:10:54.481Z,98458.88
2023-01-12T21:13:24.500Z,98465.38
2023-01-12T21:16:04.865Z,98470.44
2023-01-12T21:18:34.569Z,98464.63
2023-01-12T21:21:03.588Z,98462.97
2023-01-12T21:23:32.788Z,98456.22
2023-01-12T21:26:02.706Z,98430.09
2023-01-12T21:28:31.620Z,98465.44
2023-01-12T21:31:04.903Z,98449.41
2023-01-12T21:33:34.435Z,98454.91
2023-01-12T21:36:03.577Z,98454.66
2023-01-12T21:38:33.321Z,98451.19
2023-01-12T21:41:04.295Z,98443.72
2023-01-12T21:43:35.136Z,98441.34
2023-01-12T21:46:06.794Z,98445.53
2023-01-12T21:48:36.401Z,98433.50
2023-01-12T21:51:06.909Z,98434.59
2023-01-12T21:53:36.424Z,98426.81
2023-01-12T21:56:06.446Z,98429.34
2023-01-12T21:58:36.820Z,98429.44
2023-01-12T22:01:10.431Z,98409.47
2023-01-12T22:03:41.842Z,98424.19
2023-01-12T22:06:13.653Z,98423.31
2023-01-12T22:08:43.246Z,98422.31
2023-01-12T22:11:14.914Z,98409.13
2023-01-12T22:13:44.289Z,98408.97
2023-01-12T22:16:15.506Z,98406.97
2023-01-12T22:18:52.943Z,98398.53
2023-01-12T22:21:22.599Z,98403.94
2023-01-12T22:23:51.388Z,98404.69
2023-01-12T22:26:20.683Z,98409.09
2023-01-12T22:28:50.001Z,98404.69
2023-01-12T22:31:21.658Z,98409.59
2023-01-12T22:33:55.571Z,98408.69
2023-01-12T22:36:24.356Z,98403.63
2023-01-12T22:38:53.154Z,98403.34
2023-01-12T22:41:23.185Z,98396.84
2023-01-12T22:43:56.208Z,98394.97
2023-01-12T22:46:27.056Z,98398.88
2023-01-12T22:48:58.146Z,98391.31
2023-01-12T22:51:28.543Z,98391.09
2023-01-12T22:53:58.228Z,98378.50
2023-01-12T22:56:27.302Z,98381.47
2023-01-12T22:58:57.094Z,98388.72
2023-01-12T23:01:27.423Z,98378.63
2023-01-12T23:03:58.367Z,98370.13
2023-01-12T23:06:27.712Z,98373.09
2023-01-12T23:08:56.622Z,98370.28
2023-01-12T23:11:27.112Z,98374.59
2023-01-12T23:13:56.035Z,98373.44
2023-01-12T23:16:25.872Z,98378.94
2023-01-12T23:18:55.908Z,98357.28
2023-01-12T23:21:27.722Z,98376.03
2023-01-12T23:23:59.320Z,98368.00
2023-01-12T23:26:32.813Z,98351.84
2023-01-12T23:29:03.572Z,98361.28
2023-01-12T23:31:34.265Z,98366.22
2023-01-12T23:34:03.884Z,98356.03
2023-01-12T23:36:32.913Z,98340.28
2023-01-12T23:39:04.373Z,98361.59
2023-01-12T23:41:35.886Z,98352.72
2023-01-12T23:44:08.137Z,98354.50
2023-01-12T23:46:39.681Z,98356.25
2023-01-12T23:49:08.688Z,98347.88
2023-01-12T23:51:37.655Z,98347.47
2023-01-12T23:54:08.089Z,98354.06
2023-01-12T23:56:36.896Z,98349.66
2023-01-12T23:59:05.682Z,98356.84
